Time;durP1;ratioP1;P1;durP2;ratioP2;P2;SDS_P1;SDS_P2;PMS_P1;PMS_P2;Temp;Humidity;BMP_temperature;BMP_pressure;BME280_temperature;BME280_humidity;BME280_pressure;Samples;Min_cycle;Max_cycle;Signal;HPM_P1;HPM_P2
2023/09/24 00:01:43;;;;;;;2.13;1.38;;;10.80;1.00;;;;;;5017181;28;20438;-84
2023/09/24 00:04:10;;;;;;;1.60;1.40;;;10.70;1.00;;;;;;5017331;28;20386;-84
2023/09/24 00:06:36;;;;;;;1.58;1.38;;;10.80;1.00;;;;;;5017829;28;20445;-84
2023/09/24 00:09:02;;;;;;;3.90;1.40;;;10.80;1.00;;;;;;5017139;28;20386;-83
2023/09/24 00:11:27;;;;;;;2.63;1.30;;;10.80;1.00;;;;;;5016802;28;20429;-85
2023/09/24 00:13:54;;;;;;;3.60;1.40;;;10.80;1.00;;;;;;5014413;28;20399;-85
2023/09/24 00:16:19;;;;;;;1.60;1.25;;;10.90;1.00;;;;;;5007553;28;20412;-86
2023/09/24 00:18:45;;;;;;;2.27;1.40;;;10.80;1.00;;;;;;5004793;28;20398;-85
2023/09/24 00:21:11;;;;;;;1.50;1.40;;;10.60;1.00;;;;;;5010914;28;20398;-85
2023/09/24 00:23:37;;;;;;;2.30;1.70;;;10.60;1.00;;;;;;5007095;28;20410;-86
2023/09/24 00:26:02;;;;;;;1.60;1.27;;;10.50;1.00;;;;;;5006412;28;20921;-85
2023/09/24 00:28:28;;;;;;;2.90;1.50;;;10.40;1.00;;;;;;5006804;28;20946;-85
2023/09/24 00:31:00;;;;;;;3.22;1.48;;;10.30;1.00;;;;;;5006859;28;20421;-86
2023/09/24 00:33:26;;;;;;;1.65;1.55;;;10.30;1.00;;;;;;5014472;28;20517;-86
2023/09/24 00:35:52;;;;;;;1.95;1.70;;;10.40;1.00;;;;;;5006032;28;20390;-86
2023/09/24 00:38:18;;;;;;;1.20;1.10;;;10.40;1.00;;;;;;5005809;28;20463;-86
2023/09/24 00:40:44;;;;;;;1.40;1.30;;;10.30;1.00;;;;;;5008708;28;20421;-84
2023/09/24 00:43:32;;;;;;;2.55;1.60;;;10.30;1.00;;;;;;5005393;28;20399;-86
2023/09/24 00:46:00;;;;;;;1.80;1.40;;;10.50;1.00;;;;;;5014968;28;20418;-84
2023/09/24 00:48:30;;;;;;;2.50;1.35;;;10.30;1.00;;;;;;5015995;28;20413;-84
2023/09/24 00:51:02;;;;;;;2.20;1.50;;;10.20;1.00;;;;;;5015918;28;20405;-84
2023/09/24 00:53:29;;;;;;;1.98;1.17;;;10.10;1.00;;;;;;5016131;28;20394;-83
2023/09/24 00:55:56;;;;;;;1.53;1.43;;;10.10;1.00;;;;;;5015853;28;20394;-84
2023/09/24 00:58:23;;;;;;;3.60;1.50;;;10.10;1.00;;;;;;5016014;28;20398;-84
2023/09/24 01:00:51;;;;;;;2.60;1.38;;;10.10;1.00;;;;;;5015835;28;20425;-84
2023/09/24 01:03:18;;;;;;;4.00;1.77;;;10.00;1.00;;;;;;5014773;28;20400;-84
2023/09/24 01:05:49;;;;;;;2.40;1.50;;;10.00;1.00;;;;;;5015657;28;20473;-84
2023/09/24 01:08:17;;;;;;;2.50;1.30;;;10.10;1.00;;;;;;5016542;28;20397;-84
2023/09/24 01:10:47;;;;;;;2.03;1.52;;;10.00;1.00;;;;;;5016412;28;20394;-84
2023/09/24 01:13:15;;;;;;;1.40;1.10;;;9.90;1.00;;;;;;5015670;28;20399;-85
2023/09/24 01:15:48;;;;;;;1.92;1.48;;;9.90;1.00;;;;;;5014613;28;20432;-84
2023/09/24 01:18:14;;;;;;;1.90;1.60;;;9.80;1.00;;;;;;5016473;28;20406;-85
2023/09/24 01:20:40;;;;;;;1.70;1.50;;;9.90;1.00;;;;;;5025785;28;20408;-84
2023/09/24 01:23:09;;;;;;;1.90;1.50;;;9.90;1.00;;;;;;5015656;28;20410;-84
2023/09/24 01:25:36;;;;;;;1.30;1.20;;;10.00;1.00;;;;;;5015244;28;20414;-85
2023/09/24 01:28:03;;;;;;;1.70;1.40;;;9.80;1.00;;;;;;5014455;28;20478;-85
2023/09/24 01:30:30;;;;;;;2.10;1.60;;;9.70;1.00;;;;;;5015556;28;20441;-85
2023/09/24 01:32:57;;;;;;;1.52;1.25;;;9.70;1.00;;;;;;5015506;28;20421;-85
2023/09/24 01:35:27;;;;;;;2.50;1.65;;;9.60;1.00;;;;;;5015145;28;20414;-85
2023/09/24 01:38:06;;;;;;;1.90;1.48;;;9.70;1.00;;;;;;5014280;28;20413;-85
2023/09/24 01:40:38;;;;;;;3.28;1.27;;;9.70;1.00;;;;;;5011538;28;20395;-84
2023/09/24 01:43:08;;;;;;;2.38;1.38;;;9.60;1.00;;;;;;5006700;28;20405;-85
2023/09/24 01:45:40;;;;;;;3.20;1.30;;;9.60;1.00;;;;;;5003231;28;20416;-86
2023/09/24 01:48:09;;;;;;;2.20;1.55;;;9.60;1.00;;;;;;4999916;28;21121;-85
2023/09/24 01:50:36;;;;;;;2.45;1.50;;;9.60;1.00;;;;;;5003205;28;20932;-85
2023/09/24 01:53:02;;;;;;;1.42;1.30;;;9.60;1.00;;;;;;5002414;28;20525;-85
2023/09/24 01:55:28;;;;;;;1.30;1.10;;;9.50;1.00;;;;;;5000165;28;20397;-86
2023/09/24 01:57:55;;;;;;;3.50;1.52;;;9.40;1.00;;;;;;4998614;28;20395;-86
2023/09/24 02:00:25;;;;;;;2.70;1.30;;;9.60;1.00;;;;;;4998440;28;20429;-85
2023/09/24 02:02:59;;;;;;;1.20;1.10;;;9.90;1.00;;;;;;4997164;28;20432;-85
2023/09/24 02:05:30;;;;;;;3.25;1.10;;;9.80;1.00;;;;;;4989426;28;20394;-86
2023/09/24 02:07:56;;;;;;;1.80;1.20;;;9.60;1.00;;;;;;4994409;28;20457;-85
2023/09/24 02:10:22;;;;;;;1.52;1.38;;;9.50;1.00;;;;;;4995349;28;20961;-85
2023/09/24 02:12:47;;;;;;;1.42;0.93;;;9.50;1.00;;;;;;5004122;28;20391;-85
2023/09/24 02:15:17;;;;;;;2.58;1.40;;;9.40;1.00;;;;;;5006435;28;20463;-85
2023/09/24 02:17:49;;;;;;;1.97;1.40;;;9.40;1.00;;;;;;4987997;28;20783;-85
2023/09/24 02:22:59;;;;;;;1.88;1.35;;;9.30;1.00;;;;;;4996709;28;20433;-85
2023/09/24 02:25:26;;;;;;;1.30;1.10;;;9.30;1.00;;;;;;4994736;28;20442;-85
2023/09/24 02:27:52;;;;;;;2.70;1.50;;;9.30;1.00;;;;;;4993831;28;20407;-85
2023/09/24 02:30:19;;;;;;;3.10;1.50;;;9.30;1.00;;;;;;4994022;28;20459;-86
2023/09/24 02:32:45;;;;;;;4.00;1.30;;;9.20;1.00;;;;;;4985840;28;20473;-85
2023/09/24 02:35:13;;;;;;;3.78;1.30;;;9.20;1.00;;;;;;4994693;28;20896;-86
2023/09/24 02:37:48;;;;;;;2.22;1.40;;;9.20;1.00;;;;;;4993906;28;20409;-84
2023/09/24 02:40:21;;;;;;;1.67;1.30;;;9.20;1.00;;;;;;4994984;28;20477;-85
2023/09/24 02:42:48;;;;;;;2.80;1.50;;;9.20;1.00;;;;;;4992911;28;20406;-85
2023/09/24 02:45:17;;;;;;;1.90;1.20;;;9.20;1.00;;;;;;4992728;28;20405;-85
2023/09/24 02:47:44;;;;;;;1.75;1.30;;;9.20;1.00;;;;;;4993454;28;20399;-85
2023/09/24 02:50:13;;;;;;;3.60;1.20;;;9.10;1.00;;;;;;4993199;28;20513;-86
2023/09/24 02:52:43;;;;;;;2.60;1.30;;;9.10;1.00;;;;;;4992636;28;20444;-86
2023/09/24 02:55:10;;;;;;;2.00;1.27;;;9.10;1.00;;;;;;4995602;28;20413;-85
2023/09/24 02:57:37;;;;;;;2.30;1.40;;;9.10;1.00;;;;;;4994021;28;20394;-85
2023/09/24 03:00:17;;;;;;;1.80;1.10;;;9.00;1.00;;;;;;4992815;28;20395;-85
2023/09/24 03:02:44;;;;;;;1.73;1.30;;;9.00;1.00;;;;;;4993976;28;20390;-85
2023/09/24 03:05:13;;;;;;;1.70;1.30;;;9.00;1.00;;;;;;4992681;28;20406;-86
2023/09/24 03:07:44;;;;;;;3.47;1.30;;;9.00;1.00;;;;;;4993174;28;20406;-85
2023/09/24 03:10:10;;;;;;;3.15;1.48;;;9.00;1.00;;;;;;4992919;28;20390;-85
2023/09/24 03:12:36;;;;;;;1.70;1.33;;;8.90;1.00;;;;;;4992461;28;20394;-85
2023/09/24 03:15:03;;;;;;;2.70;1.30;;;8.90;1.00;;;;;;4988467;28;20477;-86
2023/09/24 03:17:28;;;;;;;2.93;1.37;;;8.90;1.00;;;;;;4992561;28;20429;-86
2023/09/24 03:19:54;;;;;;;2.13;1.60;;;8.70;1.00;;;;;;4994131;28;20426;-85
2023/09/24 03:22:21;;;;;;;3.23;1.30;;;8.90;1.00;;;;;;4985648;28;20469;-85
2023/09/24 03:24:47;;;;;;;2.43;1.40;;;8.90;1.00;;;;;;4988783;28;20458;-85
2023/09/24 03:27:14;;;;;;;1.60;1.30;;;8.80;1.00;;;;;;4992242;28;20504;-86
2023/09/24 03:29:40;;;;;;;2.42;1.30;;;8.80;1.00;;;;;;5003679;28;20390;-85
2023/09/24 03:32:05;;;;;;;2.00;1.43;;;8.80;1.00;;;;;;5001423;28;20485;-86
2023/09/24 03:34:31;;;;;;;2.20;1.20;;;8.80;1.00;;;;;;5000425;28;20410;-86
2023/09/24 03:36:56;;;;;;;2.40;1.38;;;8.70;1.00;;;;;;5002316;28;20410;-86
2023/09/24 03:39:24;;;;;;;1.80;1.30;;;8.50;1.00;;;;;;5000399;28;20402;-84
2023/09/24 03:41:50;;;;;;;1.60;1.10;;;8.70;1.00;;;;;;4996453;28;20451;-85
2023/09/24 03:44:15;;;;;;;2.10;0.90;;;8.10;1.00;;;;;;4994891;28;20395;-86
2023/09/24 03:46:41;;;;;;;2.45;1.27;;;8.70;1.00;;;;;;4994910;28;20990;-86
2023/09/24 03:49:06;;;;;;;1.80;1.37;;;8.70;1.00;;;;;;4994696;28;20395;-85
2023/09/24 03:51:32;;;;;;;2.83;1.20;;;8.50;1.00;;;;;;4995720;28;20392;-85
2023/09/24 03:53:58;;;;;;;1.10;1.00;;;8.60;1.00;;;;;;4996884;28;20476;-85
2023/09/24 03:56:24;;;;;;;1.60;1.10;;;8.60;1.00;;;;;;4992987;28;20802;-85
2023/09/24 03:58:50;;;;;;;1.50;1.20;;;8.30;1.00;;;;;;4998088;28;20390;-85
2023/09/24 04:01:17;;;;;;;2.40;1.40;;;8.60;1.00;;;;;;5006557;28;20404;-86
2023/09/24 04:03:43;;;;;;;1.80;1.30;;;8.50;1.00;;;;;;5005270;28;20405;-86
2023/09/24 04:06:12;;;;;;;1.85;1.40;;;8.60;1.00;;;;;;5004197;28;20418;-85
2023/09/24 04:08:38;;;;;;;1.58;1.48;;;8.50;1.00;;;;;;4998487;28;20397;-86
2023/09/24 04:11:09;;;;;;;3.37;1.40;;;8.50;1.00;;;;;;5002002;28;20751;-85
2023/09/24 04:13:36;;;;;;;1.80;1.30;;;8.70;1.00;;;;;;5000486;28;20963;-85
2023/09/24 04:16:09;;;;;;;1.90;1.30;;;8.60;1.00;;;;;;4997559;28;20910;-85
2023/09/24 04:18:35;;;;;;;1.40;1.30;;;8.50;1.00;;;;;;4999360;28;20424;-86
2023/09/24 04:21:01;;;;;;;2.50;1.43;;;8.50;1.00;;;;;;4997947;28;20449;-85
2023/09/24 04:23:27;;;;;;;3.40;1.30;;;8.60;1.00;;;;;;5001341;28;20389;-86
2023/09/24 04:25:54;;;;;;;1.30;1.20;;;8.60;1.00;;;;;;4996016;28;20627;-85
2023/09/24 04:28:19;;;;;;;1.50;1.30;;;8.50;1.00;;;;;;4996954;28;20431;-86
2023/09/24 04:30:46;;;;;;;1.40;1.20;;;8.70;1.00;;;;;;4999441;28;20390;-86
2023/09/24 04:33:12;;;;;;;1.20;1.10;;;8.40;1.00;;;;;;5002633;28;20422;-85
2023/09/24 04:35:38;;;;;;;1.67;1.20;;;8.40;1.00;;;;;;4999342;28;20439;-85
2023/09/24 04:38:03;;;;;;;1.50;1.40;;;8.50;1.00;;;;;;5000663;28;20383;-86
2023/09/24 04:40:29;;;;;;;1.70;1.30;;;8.60;1.00;;;;;;4999044;28;20904;-86
2023/09/24 04:42:54;;;;;;;1.27;1.08;;;8.50;1.00;;;;;;4998713;28;20414;-85
2023/09/24 04:45:20;;;;;;;1.77;1.00;;;8.40;1.00;;;;;;5013144;28;20401;-85
2023/09/24 04:47:48;;;;;;;2.30;1.27;;;8.50;1.00;;;;;;5015734;28;20490;-85
2023/09/24 04:50:14;;;;;;;2.60;1.20;;;8.50;1.00;;;;;;5016438;28;20395;-85
2023/09/24 04:52:41;;;;;;;2.67;1.48;;;8.50;1.00;;;;;;5013781;28;20414;-85
2023/09/24 04:55:11;;;;;;;1.92;1.15;;;8.60;1.00;;;;;;5012380;28;20422;-85
2023/09/24 04:57:37;;;;;;;2.97;1.40;;;8.50;1.00;;;;;;5004159;28;21232;-85
2023/09/24 05:00:03;;;;;;;1.30;1.20;;;8.50;1.00;;;;;;5003721;28;20398;-86
2023/09/24 05:02:28;;;;;;;2.83;1.70;;;8.70;1.00;;;;;;4997017;28;20398;-85
2023/09/24 05:04:54;;;;;;;1.83;1.50;;;8.40;1.00;;;;;;4991632;28;20895;-85
2023/09/24 05:07:19;;;;;;;2.50;1.90;;;8.50;1.00;;;;;;4999814;28;20405;-86
2023/09/24 05:09:45;;;;;;;2.00;1.40;;;8.40;1.00;;;;;;4998066;28;20406;-85
2023/09/24 05:12:12;;;;;;;1.30;1.20;;;8.30;1.00;;;;;;5000324;28;20397;-85
2023/09/24 05:14:38;;;;;;;1.20;1.10;;;8.40;1.00;;;;;;5001050;28;20383;-85
2023/09/24 05:17:03;;;;;;;1.30;1.20;;;8.30;1.00;;;;;;5013233;28;20437;-86
2023/09/24 05:19:29;;;;;;;1.65;1.20;;;8.20;1.00;;;;;;5002899;28;20391;-86
2023/09/24 05:21:54;;;;;;;2.20;1.20;;;8.20;1.00;;;;;;4997115;28;20396;-86
2023/09/24 05:24:20;;;;;;;2.50;1.70;;;8.20;1.00;;;;;;4998609;28;20400;-85
2023/09/24 05:26:46;;;;;;;2.40;1.30;;;8.20;1.00;;;;;;4992081;28;20430;-85
2023/09/24 05:29:11;;;;;;;2.00;1.10;;;8.40;1.00;;;;;;5000952;28;20424;-85
2023/09/24 05:31:38;;;;;;;3.47;1.23;;;8.50;1.00;;;;;;5004402;28;20390;-85
2023/09/24 05:34:06;;;;;;;1.70;1.20;;;8.30;1.00;;;;;;5009901;28;20952;-85
2023/09/24 05:36:32;;;;;;;1.90;1.20;;;8.30;1.00;;;;;;5000834;28;20402;-85
2023/09/24 05:39:04;;;;;;;1.90;1.30;;;8.30;1.00;;;;;;5002449;28;20404;-85
2023/09/24 05:41:30;;;;;;;1.65;1.00;;;8.20;1.00;;;;;;4999285;28;20394;-85
2023/09/24 05:44:00;;;;;;;1.30;1.10;;;8.30;1.00;;;;;;5003223;28;20464;-84
2023/09/24 05:46:26;;;;;;;2.08;1.30;;;8.10;1.00;;;;;;5003898;28;20404;-85
2023/09/24 05:48:55;;;;;;;2.10;1.30;;;8.30;1.00;;;;;;5000207;28;20395;-85
2023/09/24 05:51:23;;;;;;;2.78;1.20;;;8.30;1.00;;;;;;5000253;28;20412;-86
2023/09/24 05:53:49;;;;;;;1.83;1.20;;;8.20;1.00;;;;;;5002111;28;21459;-85
2023/09/24 05:56:14;;;;;;;2.70;1.30;;;8.30;1.00;;;;;;5000922;28;20401;-85
2023/09/24 05:58:40;;;;;;;1.20;1.10;;;8.50;1.00;;;;;;5002751;28;20383;-85
2023/09/24 06:01:05;;;;;;;2.30;1.20;;;8.40;1.00;;;;;;5008039;28;20929;-86
2023/09/24 06:03:31;;;;;;;2.00;1.00;;;8.50;1.00;;;;;;4995954;28;20495;-86
2023/09/24 06:05:57;;;;;;;1.30;1.17;;;8.50;1.00;;;;;;4991527;28;20442;-86
2023/09/24 06:08:22;;;;;;;2.47;1.20;;;8.50;1.00;;;;;;4994402;28;20441;-86
2023/09/24 06:10:48;;;;;;;1.90;1.30;;;8.60;1.00;;;;;;4992502;28;20390;-86
2023/09/24 06:13:15;;;;;;;2.10;1.35;;;8.70;1.00;;;;;;4992727;28;20418;-86
2023/09/24 06:15:44;;;;;;;2.70;1.50;;;8.80;1.00;;;;;;4992139;28;20406;-86
2023/09/24 06:18:10;;;;;;;1.60;1.50;;;8.90;1.00;;;;;;4993246;28;20398;-86
2023/09/24 06:20:40;;;;;;;2.35;1.63;;;9.00;1.00;;;;;;4993250;28;20429;-86
2023/09/24 06:23:06;;;;;;;1.98;1.30;;;8.80;1.00;;;;;;4992085;28;20841;-86
2023/09/24 06:25:32;;;;;;;1.40;1.30;;;9.00;1.00;;;;;;4993591;28;20394;-88
2023/09/24 06:27:58;;;;;;;2.20;1.50;;;8.10;1.00;;;;;;4993614;28;20396;-87
2023/09/24 06:30:24;;;;;;;3.10;1.83;;;8.40;1.00;;;;;;4992454;28;21044;-87
2023/09/24 06:32:49;;;;;;;1.70;1.20;;;9.00;1.00;;;;;;4993350;28;20969;-87
2023/09/24 06:35:15;;;;;;;2.17;1.40;;;9.30;1.00;;;;;;4994379;28;20404;-86
2023/09/24 06:37:40;;;;;;;1.50;1.20;;;9.40;1.00;;;;;;4996294;28;20433;-86
2023/09/24 06:40:08;;;;;;;3.80;1.47;;;8.90;1.00;;;;;;4994700;28;20448;-86
2023/09/24 06:42:34;;;;;;;1.90;1.40;;;9.50;1.00;;;;;;4995637;28;20394;-86
2023/09/24 06:45:00;;;;;;;1.60;1.10;;;9.00;1.00;;;;;;4994631;28;21093;-86
2023/09/24 06:47:25;;;;;;;2.13;1.30;;;9.50;1.00;;;;;;4994435;28;20414;-85
2023/09/24 06:49:51;;;;;;;1.13;1.00;;;9.60;1.00;;;;;;5010393;28;20417;-85
2023/09/24 06:52:17;;;;;;;2.30;1.10;;;9.60;1.00;;;;;;4998077;28;20402;-85
2023/09/24 06:54:42;;;;;;;2.38;1.30;;;9.70;1.00;;;;;;4996234;28;20405;-85
2023/09/24 06:57:08;;;;;;;1.58;1.10;;;9.80;1.00;;;;;;4996885;28;20394;-85
2023/09/24 06:59:33;;;;;;;1.40;1.20;;;9.90;1.00;;;;;;4996149;28;20403;-85
2023/09/24 07:01:59;;;;;;;1.90;1.35;;;9.90;1.00;;;;;;4995918;28;20944;-84
2023/09/24 07:04:24;;;;;;;1.13;0.90;;;9.80;1.00;;;;;;4995452;28;20398;-85
2023/09/24 07:06:51;;;;;;;1.80;1.13;;;10.10;1.00;;;;;;4995709;28;20441;-85
2023/09/24 07:09:17;;;;;;;2.70;1.30;;;10.20;1.00;;;;;;4994942;28;20849;-84
2023/09/24 07:11:46;;;;;;;2.00;1.23;;;9.60;1.00;;;;;;4986380;28;20425;-86
2023/09/24 07:14:11;;;;;;;2.30;1.20;;;10.40;1.00;;;;;;4983198;28;20404;-85
2023/09/24 07:16:37;;;;;;;2.10;1.33;;;10.50;1.00;;;;;;4989931;28;20403;-85
2023/09/24 07:19:03;;;;;;;1.42;1.33;;;9.30;1.00;;;;;;4997126;28;20393;-85
2023/09/24 07:21:30;;;;;;;1.90;1.20;;;10.70;1.00;;;;;;4997791;28;20400;-85
2023/09/24 07:23:58;;;;;;;1.63;1.20;;;10.70;1.00;;;;;;4996006;28;20602;-85
2023/09/24 07:26:25;;;;;;;2.38;1.75;;;10.70;1.00;;;;;;4994942;28;20460;-85
2023/09/24 07:28:52;;;;;;;2.00;0.93;;;10.90;1.00;;;;;;4996695;28;20917;-86
2023/09/24 07:31:21;;;;;;;2.90;1.10;;;11.00;1.00;;;;;;4993990;28;20422;-85
2023/09/24 07:33:48;;;;;;;2.67;1.10;;;11.90;1.00;;;;;;4995360;28;20470;-86
2023/09/24 07:36:14;;;;;;;1.30;0.80;;;10.90;1.00;;;;;;4995073;28;20480;-86
2023/09/24 07:38:40;;;;;;;2.15;0.95;;;11.20;1.00;;;;;;4995167;28;20762;-85
2023/09/24 07:41:10;;;;;;;2.30;1.20;;;11.40;1.00;;;;;;4996319;28;20453;-85
2023/09/24 07:43:37;;;;;;;1.45;1.02;;;11.40;1.00;;;;;;4993996;28;20399;-85
2023/09/24 07:46:14;;;;;;;2.78;1.10;;;11.50;1.00;;;;;;4993075;28;20406;-85
2023/09/24 07:48:42;;;;;;;1.88;1.00;;;11.50;1.00;;;;;;4994338;28;20866;-85
2023/09/24 07:51:16;;;;;;;3.95;1.25;;;11.80;1.00;;;;;;4992689;28;20403;-85
2023/09/24 07:53:42;;;;;;;2.03;1.50;;;12.00;1.00;;;;;;4993425;28;20398;-85
2023/09/24 07:56:09;;;;;;;1.20;1.00;;;11.70;1.00;;;;;;4993161;28;20403;-85
2023/09/24 07:58:36;;;;;;;2.03;1.10;;;12.20;1.00;;;;;;4994522;28;20422;-86
2023/09/24 08:01:06;;;;;;;1.20;1.10;;;12.00;1.00;;;;;;4993569;28;20437;-86
2023/09/24 08:03:32;;;;;;;1.15;0.90;;;12.30;1.00;;;;;;4990423;28;20818;-85
2023/09/24 08:05:59;;;;;;;3.37;1.47;;;12.30;1.00;;;;;;4973816;28;20446;-84
2023/09/24 08:08:28;;;;;;;2.95;1.40;;;12.50;1.00;;;;;;4974172;28;20392;-86
2023/09/24 08:10:54;;;;;;;2.05;1.15;;;12.60;1.00;;;;;;4972823;28;20471;-86
2023/09/24 08:13:20;;;;;;;2.17;1.88;;;12.70;1.00;;;;;;4981339;28;21046;-87
2023/09/24 08:15:47;;;;;;;3.00;2.00;;;12.10;1.00;;;;;;4992565;28;20406;-85
2023/09/24 08:18:13;;;;;;;4.35;1.95;;;12.50;1.00;;;;;;4992995;28;20402;-85
2023/09/24 08:20:40;;;;;;;3.90;1.65;;;12.90;1.00;;;;;;5014268;28;20397;-85
2023/09/24 08:23:06;;;;;;;2.30;1.55;;;12.80;1.00;;;;;;5012992;28;20393;-85
2023/09/24 08:25:32;;;;;;;3.90;1.90;;;12.70;1.00;;;;;;5012294;28;20389;-85
2023/09/24 08:27:58;;;;;;;2.47;1.50;;;12.70;1.00;;;;;;5012109;28;20476;-85
2023/09/24 08:30:24;;;;;;;1.60;1.40;;;12.70;1.00;;;;;;4991899;28;20827;-85
2023/09/24 08:32:50;;;;;;;4.50;1.50;;;12.30;1.00;;;;;;4991968;28;20398;-84
2023/09/24 08:35:15;;;;;;;1.70;1.30;;;12.70;1.00;;;;;;4993319;28;20405;-85
2023/09/24 08:37:41;;;;;;;3.50;1.20;;;12.90;1.00;;;;;;4992007;28;20387;-85
2023/09/24 08:40:09;;;;;;;3.30;1.10;;;12.70;1.00;;;;;;4992100;28;20407;-85
2023/09/24 08:42:36;;;;;;;1.87;1.20;;;13.10;1.00;;;;;;4991539;28;20398;-85
2023/09/24 08:45:15;;;;;;;2.75;1.30;;;12.80;1.00;;;;;;4993364;28;20408;-85
2023/09/24 08:47:45;;;;;;;2.25;1.30;;;13.10;1.00;;;;;;4992675;28;20415;-85
2023/09/24 08:50:11;;;;;;;2.30;1.10;;;13.20;1.00;;;;;;4992610;28;20423;-87
2023/09/24 08:52:42;;;;;;;3.90;1.50;;;13.20;1.00;;;;;;4993172;28;20391;-85
2023/09/24 08:55:09;;;;;;;1.92;1.63;;;13.30;1.00;;;;;;4993224;28;20402;-84
2023/09/24 08:57:45;;;;;;;3.80;1.40;;;13.20;1.00;;;;;;4992799;28;20775;-85
2023/09/24 09:00:12;;;;;;;1.30;1.20;;;13.40;1.00;;;;;;4991269;28;20421;-84
2023/09/24 09:02:41;;;;;;;2.55;1.60;;;13.50;1.00;;;;;;4991376;28;20453;-86
2023/09/24 09:05:25;;;;;;;2.80;1.57;;;13.50;1.00;;;;;;4992812;28;20445;-85
2023/09/24 09:08:02;;;;;;;2.08;1.60;;;13.70;1.00;;;;;;4996935;28;20413;-85
2023/09/24 09:10:29;;;;;;;2.70;1.70;;;13.80;1.00;;;;;;4994459;28;20842;-85
2023/09/24 09:13:04;;;;;;;3.78;1.90;;;13.00;1.00;;;;;;4972241;28;20400;-84
2023/09/24 09:15:30;;;;;;;3.50;1.90;;;13.90;1.00;;;;;;4972271;28;20466;-85
2023/09/24 09:17:56;;;;;;;3.97;1.80;;;13.50;1.00;;;;;;4976134;28;20398;-85
2023/09/24 09:20:41;;;;;;;2.60;1.40;;;13.90;1.00;;;;;;4996526;28;20480;-86
2023/09/24 09:23:12;;;;;;;3.85;1.70;;;13.20;1.00;;;;;;4981464;28;20434;-86
2023/09/24 09:25:52;;;;;;;2.28;1.60;;;13.40;1.00;;;;;;4991010;28;20426;-84
2023/09/24 09:28:26;;;;;;;2.90;1.92;;;14.00;1.00;;;;;;4986578;28;20411;-87
2023/09/24 09:31:09;;;;;;;2.20;1.70;;;13.60;1.00;;;;;;4982686;28;20512;-87
2023/09/24 09:33:41;;;;;;;2.33;1.55;;;14.00;1.00;;;;;;4984066;28;20398;-90
2023/09/24 09:36:27;;;;;;;3.70;1.60;;;14.20;1.00;;;;;;4984016;28;20388;-87
2023/09/24 09:38:54;;;;;;;2.70;1.80;;;13.80;1.00;;;;;;4988684;28;20399;-85
2023/09/24 09:41:23;;;;;;;2.75;1.40;;;14.20;1.00;;;;;;4986973;28;20399;-87
2023/09/24 09:43:51;;;;;;;4.60;1.80;;;14.40;1.00;;;;;;4987457;28;20410;-86
2023/09/24 09:46:18;;;;;;;2.03;1.50;;;14.00;1.00;;;;;;4992090;28;20825;-87
2023/09/24 09:48:55;;;;;;;1.90;1.70;;;14.80;1.00;;;;;;4990583;28;20396;-88
2023/09/24 09:51:22;;;;;;;3.13;1.60;;;14.10;1.00;;;;;;4995217;28;20543;-87
2023/09/24 09:53:48;;;;;;;2.00;1.47;;;14.40;1.00;;;;;;5008209;28;20395;-89
2023/09/24 09:56:14;;;;;;;2.20;1.50;;;16.30;1.00;;;;;;5008953;28;20405;-87
2023/09/24 09:58:41;;;;;;;2.50;1.55;;;14.30;1.00;;;;;;4992157;28;20532;-86
2023/09/24 10:01:07;;;;;;;2.05;1.75;;;14.40;1.00;;;;;;4992810;28;20390;-87
2023/09/24 10:03:40;;;;;;;4.10;1.60;;;14.20;1.00;;;;;;4990963;28;20406;-87
2023/09/24 10:06:10;;;;;;;5.70;1.60;;;15.10;1.00;;;;;;4983475;28;20501;-88
2023/09/24 10:08:45;;;;;;;3.40;1.50;;;15.20;1.00;;;;;;4973231;28;20419;-85
2023/09/24 10:11:32;;;;;;;3.50;1.60;;;15.30;1.00;;;;;;4992247;28;20389;-87
2023/09/24 10:14:01;;;;;;;3.47;1.70;;;14.60;1.00;;;;;;5014443;28;20374;-87
2023/09/24 10:16:30;;;;;;;2.95;1.40;;;15.50;1.00;;;;;;5015809;28;20414;-87
2023/09/24 10:19:03;;;;;;;1.45;1.30;;;14.60;1.00;;;;;;4996666;28;20398;-86
2023/09/24 10:21:31;;;;;;;2.10;1.48;;;15.10;1.00;;;;;;5001312;28;20457;-87
2023/09/24 10:24:17;;;;;;;1.60;1.40;;;15.20;1.00;;;;;;4995588;28;20394;-88
2023/09/24 10:26:49;;;;;;;1.75;1.42;;;15.50;1.00;;;;;;4986886;28;20414;-87
2023/09/24 10:29:16;;;;;;;1.17;1.08;;;17.00;1.00;;;;;;4995858;28;20406;-87
2023/09/24 10:32:08;;;;;;;2.78;1.50;;;15.50;1.00;;;;;;4995368;28;20764;-87
2023/09/24 10:34:54;;;;;;;1.40;1.00;;;16.10;1.00;;;;;;4982107;28;20396;-90
2023/09/24 10:37:31;;;;;;;1.83;1.02;;;15.80;1.00;;;;;;4978322;28;20559;-89
2023/09/24 10:39:59;;;;;;;1.88;1.30;;;17.10;1.00;;;;;;4982140;28;20437;-90
2023/09/24 10:42:26;;;;;;;2.00;1.20;;;16.90;1.00;;;;;;4996461;28;20391;-88
2023/09/24 10:45:07;;;;;;;1.60;1.30;;;18.80;1.00;;;;;;4996619;28;20401;-88
2023/09/24 10:47:38;;;;;;;3.97;1.13;;;18.60;1.00;;;;;;4996799;28;20410;-87
2023/09/24 10:50:06;;;;;;;1.75;1.27;;;18.00;1.00;;;;;;4997239;28;20378;-88
2023/09/24 10:52:54;;;;;;;1.80;1.10;;;16.60;1.00;;;;;;5003798;28;20405;-89
2023/09/24 10:55:39;;;;;;;2.80;1.10;;;16.60;1.00;;;;;;5012034;28;20467;-89
2023/09/24 10:58:11;;;;;;;1.70;0.80;;;16.20;1.00;;;;;;5015540;28;20465;-87
2023/09/24 11:00:37;;;;;;;2.30;1.30;;;18.10;1.00;;;;;;5014702;28;20402;-87
2023/09/24 11:03:08;;;;;;;1.33;1.10;;;19.40;1.00;;;;;;5019470;28;20402;-87
2023/09/24 11:05:40;;;;;;;1.20;1.00;;;17.00;1.00;;;;;;5019192;28;20414;-84
2023/09/24 11:08:06;;;;;;;1.27;1.00;;;17.20;1.00;;;;;;5019697;28;20394;-85
2023/09/24 11:10:32;;;;;;;2.95;1.30;;;17.90;1.00;;;;;;5018910;28;20413;-87
2023/09/24 11:13:03;;;;;;;2.63;1.00;;;19.30;1.00;;;;;;5019114;28;20413;-86
2023/09/24 11:15:31;;;;;;;1.40;1.00;;;18.60;1.00;;;;;;5010022;28;20524;-87
2023/09/24 11:17:57;;;;;;;1.30;0.90;;;19.50;1.00;;;;;;5010201;28;20481;-88
2023/09/24 11:20:23;;;;;;;1.30;1.00;;;19.80;1.00;;;;;;5005935;28;20397;-91
2023/09/24 11:22:59;;;;;;;2.20;1.20;;;18.70;1.00;;;;;;5028736;28;20401;-87
2023/09/24 11:25:26;;;;;;;1.20;1.00;;;19.10;1.00;;;;;;5009092;28;20421;-89
2023/09/24 11:28:03;;;;;;;1.35;1.10;;;20.30;1.00;;;;;;4995992;28;20437;-89
2023/09/24 11:30:45;;;;;;;2.50;1.37;;;20.80;1.00;;;;;;4997577;28;20484;-88
2023/09/24 11:33:30;;;;;;;1.60;1.20;;;20.80;1.00;;;;;;5008341;28;20386;-88
2023/09/24 11:35:56;;;;;;;1.83;1.15;;;20.30;1.00;;;;;;5151926;23;20444;-86
2023/09/24 11:38:31;;;;;;;2.33;1.03;;;22.20;1.00;;;;;;5017744;28;20476;-87
2023/09/24 11:41:13;;;;;;;1.70;1.00;;;22.00;1.00;;;;;;5017158;28;20407;-86
2023/09/24 11:43:41;;;;;;;1.70;0.90;;;22.30;1.00;;;;;;5017667;28;20392;-88
2023/09/24 11:46:18;;;;;;;1.38;1.20;;;21.30;1.00;;;;;;5017363;28;20405;-87
2023/09/24 11:48:44;;;;;;;3.10;1.40;;;21.50;1.00;;;;;;5015664;28;20397;-87
2023/09/24 11:51:10;;;;;;;2.80;1.30;;;21.00;1.00;;;;;;5012289;28;20400;-88
2023/09/24 11:53:36;;;;;;;1.33;1.00;;;20.90;1.00;;;;;;5013278;28;20388;-87
2023/09/24 11:56:01;;;;;;;2.65;1.20;;;21.00;1.00;;;;;;5008499;28;20464;-87
2023/09/24 11:58:27;;;;;;;2.30;1.40;;;21.30;1.00;;;;;;4994090;28;21098;-87
2023/09/24 12:00:54;;;;;;;1.80;1.02;;;21.80;1.00;;;;;;4995223;28;20470;-87
2023/09/24 12:03:22;;;;;;;1.43;1.00;;;22.00;1.00;;;;;;4999543;28;20477;-87
2023/09/24 12:05:49;;;;;;;2.42;1.20;;;23.40;1.00;;;;;;4995846;28;20402;-85
2023/09/24 12:08:14;;;;;;;1.42;1.20;;;21.00;1.00;;;;;;5012189;28;20396;-86
2023/09/24 12:10:42;;;;;;;2.40;1.17;;;21.90;1.00;;;;;;5014868;28;20805;-85
2023/09/24 12:13:08;;;;;;;2.08;1.42;;;22.10;1.00;;;;;;5014290;28;20424;-87
2023/09/24 12:15:34;;;;;;;1.52;1.20;;;21.10;1.00;;;;;;5013420;28;20400;-87
2023/09/24 12:18:05;;;;;;;1.33;1.07;;;21.50;1.00;;;;;;5002044;28;20398;-89
2023/09/24 12:20:35;;;;;;;5.40;0.90;;;20.70;1.00;;;;;;4999788;28;20929;-87
2023/09/24 12:23:04;;;;;;;1.40;1.00;;;20.40;1.00;;;;;;4993554;28;20386;-85
2023/09/24 12:25:30;;;;;;;1.70;1.10;;;20.30;1.00;;;;;;4993704;28;20402;-85
2023/09/24 12:27:56;;;;;;;1.75;1.08;;;19.60;1.00;;;;;;4996426;28;20449;-86
2023/09/24 12:30:23;;;;;;;1.65;1.55;;;19.30;1.00;;;;;;4993883;28;20414;-85
2023/09/24 12:32:48;;;;;;;1.40;1.13;;;19.30;1.00;;;;;;4996852;28;20444;-86
2023/09/24 12:35:14;;;;;;;2.35;1.30;;;19.00;1.00;;;;;;4992102;28;20414;-86
2023/09/24 12:37:41;;;;;;;1.77;1.17;;;18.80;1.00;;;;;;5007145;28;20408;-85
2023/09/24 12:40:08;;;;;;;1.40;1.02;;;19.00;1.00;;;;;;5011998;28;20393;-86
2023/09/24 12:42:35;;;;;;;1.65;1.20;;;20.00;1.00;;;;;;5013242;28;20405;-88
2023/09/24 12:45:02;;;;;;;1.30;1.10;;;20.50;1.00;;;;;;5012518;28;20396;-85
2023/09/24 12:47:33;;;;;;;3.00;1.38;;;21.00;1.00;;;;;;5014644;28;20419;-86
2023/09/24 12:50:04;;;;;;;1.25;1.15;;;21.10;1.00;;;;;;5013817;28;20385;-86
2023/09/24 12:52:47;;;;;;;1.90;1.23;;;21.10;1.00;;;;;;5029822;28;20399;-86
2023/09/24 12:55:16;;;;;;;2.20;1.17;;;20.70;1.00;;;;;;5026375;28;20410;-86
2023/09/24 12:57:44;;;;;;;1.60;1.15;;;21.70;1.00;;;;;;5013226;28;20401;-85
2023/09/24 13:00:12;;;;;;;1.70;1.13;;;21.70;1.00;;;;;;4993277;28;20406;-86
2023/09/24 13:02:44;;;;;;;3.22;1.85;;;21.50;1.00;;;;;;5004439;28;20374;-87
2023/09/24 13:05:12;;;;;;;2.57;1.40;;;21.60;1.00;;;;;;5003254;28;20411;-87
2023/09/24 13:07:43;;;;;;;1.20;1.10;;;22.30;1.00;;;;;;5010255;28;20423;-87
2023/09/24 13:10:14;;;;;;;1.50;1.10;;;22.10;1.00;;;;;;5011434;28;20461;-88
2023/09/24 13:12:40;;;;;;;1.40;1.00;;;21.90;1.00;;;;;;5012320;28;20407;-86